sensor_id;sensor_type;location;lat;lon;timestamp;P1;P2;P0
74432;PMS7003;62865;53.146;23.172;2023-07-08T00:02:33;19.8;18.2;12.2
74432;PMS7003;62865;53.146;23.172;2023-07-08T00:07:45;22.8;19.6;13.4
74432;PMS7003;62865;53.146;23.172;2023-07-08T00:13:03;29;26.2;17.2
74432;PMS7003;62865;53.146;23.172;2023-07-08T00:17:27;26;23.2;14.4
74432;PMS7003;62865;53.146;23.172;2023-07-08T00:22:11;26.8;23.2;15.4
74432;PMS7003;62865;53.146;23.172;2023-07-08T00:27:48;30;27.4;17.4
74432;PMS7003;62865;53.146;23.172;2023-07-08T00:33:05;32.8;28.8;17.8
74432;PMS7003;62865;53.146;23.172;2023-07-08T00:38:08;34.2;29;17.8
74432;PMS7003;62865;53.146;23.172;2023-07-08T00:42:27;32.2;30;19.2
74432;PMS7003;62865;53.146;23.172;2023-07-08T00:48:06;34.6;31.4;20.2
74432;PMS7003;62865;53.146;23.172;2023-07-08T00:52:18;35.8;30.8;19.4
74432;PMS7003;62865;53.146;23.172;2023-07-08T00:58:05;39.2;33.2;21.6
74432;PMS7003;62865;53.146;23.172;2023-07-08T01:02:12;35.6;30.6;20
74432;PMS7003;62865;53.146;23.172;2023-07-08T01:08:03;33.4;30.4;20.6
74432;PMS7003;62865;53.146;23.172;2023-07-08T01:12:14;36.4;30.8;19.8
74432;PMS7003;62865;53.146;23.172;2023-07-08T01:17:45;33.2;30;19.8
74432;PMS7003;62865;53.146;23.172;2023-07-08T01:22:11;30.8;28.6;19
74432;PMS7003;62865;53.146;23.172;2023-07-08T01:27:19;29;26.3;18.5
74432;PMS7003;62865;53.146;23.172;2023-07-08T01:33:05;25.2;22.4;16.6
74432;PMS7003;62865;53.146;23.172;2023-07-08T01:37:11;28.2;26.6;17.8
74432;PMS7003;62865;53.146;23.172;2023-07-08T01:42:41;21.6;20;15
74432;PMS7003;62865;53.146;23.172;2023-07-08T01:48:03;23.4;22.2;15.6
74432;PMS7003;62865;53.146;23.172;2023-07-08T01:53:08;23.2;21.8;16
74432;PMS7003;62865;53.146;23.172;2023-07-08T01:57:37;23;20.8;15
74432;PMS7003;62865;53.146;23.172;2023-07-08T02:02:37;21;19.2;13.8
74432;PMS7003;62865;53.146;23.172;2023-07-08T02:07:53;20.4;17.8;12.8
74432;PMS7003;62865;53.146;23.172;2023-07-08T02:12:53;20;19.2;12.8
74432;PMS7003;62865;53.146;23.172;2023-07-08T02:17:11;18.6;17;12
74432;PMS7003;62865;53.146;23.172;2023-07-08T02:22:12;16.2;15.8;11.8
74432;PMS7003;62865;53.146;23.172;2023-07-08T02:28:04;22.8;19.8;14.6
74432;PMS7003;62865;53.146;23.172;2023-07-08T02:33:02;20.4;19;14.2
74432;PMS7003;62865;53.146;23.172;2023-07-08T02:37:37;26;23;16.8
74432;PMS7003;62865;53.146;23.172;2023-07-08T02:43:01;24.8;22.4;17.2
74432;PMS7003;62865;53.146;23.172;2023-07-08T02:47:55;25.2;23.8;17.8
74432;PMS7003;62865;53.146;23.172;2023-07-08T02:52:34;27;25.2;17.8
74432;PMS7003;62865;53.146;23.172;2023-07-08T02:57:25;28.8;24.6;18
74432;PMS7003;62865;53.146;23.172;2023-07-08T03:02:17;40;33.4;20.8
74432;PMS7003;62865;53.146;23.172;2023-07-08T03:07:11;31.4;26.8;18.6
74432;PMS7003;62865;53.146;23.172;2023-07-08T03:12:12;27.4;24.6;16.6
74432;PMS7003;62865;53.146;23.172;2023-07-08T03:18:01;27.2;24.2;16.6
74432;PMS7003;62865;53.146;23.172;2023-07-08T03:22:41;28.4;26.6;18.2
74432;PMS7003;62865;53.146;23.172;2023-07-08T03:27:46;32.6;29.4;19
74432;PMS7003;62865;53.146;23.172;2023-07-08T03:32:18;26.2;24.4;16.2
74432;PMS7003;62865;53.146;23.172;2023-07-08T03:37:12;22.6;20.8;14.6
74432;PMS7003;62865;53.146;23.172;2023-07-08T03:42:12;22.4;19.6;13.8
74432;PMS7003;62865;53.146;23.172;2023-07-08T03:47:54;23;20.4;15.8
74432;PMS7003;62865;53.146;23.172;2023-07-08T03:52:34;19.4;18.2;13.4
74432;PMS7003;62865;53.146;23.172;2023-07-08T03:57:36;19;17.6;13.4
74432;PMS7003;62865;53.146;23.172;2023-07-08T04:02:42;19.2;17.8;13
74432;PMS7003;62865;53.146;23.172;2023-07-08T04:07:26;19;18.8;13
74432;PMS7003;62865;53.146;23.172;2023-07-08T04:12:36;18.2;16.2;12.2
74432;PMS7003;62865;53.146;23.172;2023-07-08T04:18:02;19.6;16.8;12.2
74432;PMS7003;62865;53.146;23.172;2023-07-08T04:23:02;19.4;17.8;12.6
74432;PMS7003;62865;53.146;23.172;2023-07-08T04:27:36;16.6;16;11.8
74432;PMS7003;62865;53.146;23.172;2023-07-08T04:32:36;19.4;16.6;12.4
74432;PMS7003;62865;53.146;23.172;2023-07-08T04:38:02;16.4;15.8;10.8
74432;PMS7003;62865;53.146;23.172;2023-07-08T04:42:46;14.8;13.4;10.6
74432;PMS7003;62865;53.146;23.172;2023-07-08T04:47:12;13.4;13;9.6
74432;PMS7003;62865;53.146;23.172;2023-07-08T04:52:46;12.2;10.8;8
74432;PMS7003;62865;53.146;23.172;2023-07-08T04:57:44;8.2;8.2;6.6
74432;PMS7003;62865;53.146;23.172;2023-07-08T05:02:54;11;9.4;7.4
74432;PMS7003;62865;53.146;23.172;2023-07-08T05:07:46;9.6;9;6.8
74432;PMS7003;62865;53.146;23.172;2023-07-08T05:13:02;8.8;8.6;6.2
74432;PMS7003;62865;53.146;23.172;2023-07-08T05:17:26;7.8;6.6;5
74432;PMS7003;62865;53.146;23.172;2023-07-08T05:23:02;7.2;6.8;5
74432;PMS7003;62865;53.146;23.172;2023-07-08T05:27:56;6.6;6.4;4.2
74432;PMS7003;62865;53.146;23.172;2023-07-08T05:33:02;4.4;4.4;3.4
74432;PMS7003;62865;53.146;23.172;2023-07-08T05:37:54;5.4;4;3
74432;PMS7003;62865;53.146;23.172;2023-07-08T05:42:46;4.2;3.8;3
74432;PMS7003;62865;53.146;23.172;2023-07-08T05:47:38;5;5;3.6
74432;PMS7003;62865;53.146;23.172;2023-07-08T05:52:12;4.6;4;3
74432;PMS7003;62865;53.146;23.172;2023-07-08T05:58:02;4.6;4.2;3.6
74432;PMS7003;62865;53.146;23.172;2023-07-08T06:02:46;4.2;3.4;2.8
74432;PMS7003;62865;53.146;23.172;2023-07-08T06:07:12;4.8;4.4;3
74432;PMS7003;62865;53.146;23.172;2023-07-08T06:13:02;5;4.2;3
74432;PMS7003;62865;53.146;23.172;2023-07-08T06:18:04;5;4.4;3.2
74432;PMS7003;62865;53.146;23.172;2023-07-08T06:22:20;3.8;3.6;2.8
74432;PMS7003;62865;53.146;23.172;2023-07-08T06:27:12;3.6;3.6;2.8
74432;PMS7003;62865;53.146;23.172;2023-07-08T06:32:56;3.8;3.3;2
74432;PMS7003;62865;53.146;23.172;2023-07-08T06:37:54;3.6;3.6;2.4
74432;PMS7003;62865;53.146;23.172;2023-07-08T06:42:34;4;3.4;2.4
74432;PMS7003;62865;53.146;23.172;2023-07-08T06:47:12;3.8;3.4;2.6
74432;PMS7003;62865;53.146;23.172;2023-07-08T06:53:02;3.4;3.4;2.4
74432;PMS7003;62865;53.146;23.172;2023-07-08T06:57:12;3.2;3;2
74432;PMS7003;62865;53.146;23.172;2023-07-08T07:02:38;3.2;3.2;2.4
74432;PMS7003;62865;53.146;23.172;2023-07-08T07:08:02;3.4;2.8;2.2
74432;PMS7003;62865;53.146;23.172;2023-07-08T07:13:02;3.6;2.8;2
74432;PMS7003;62865;53.146;23.172;2023-07-08T07:17:36;2.8;2.6;2.2
74432;PMS7003;62865;53.146;23.172;2023-07-08T07:22:12;3.4;3;1.8
74432;PMS7003;62865;53.146;23.172;2023-07-08T07:27:20;3.4;2.4;1.8
74432;PMS7003;62865;53.146;23.172;2023-07-08T07:32:12;3.6;2.2;1.4
74432;PMS7003;62865;53.146;23.172;2023-07-08T07:37:30;2.6;2.4;2
74432;PMS7003;62865;53.146;23.172;2023-07-08T07:43:02;3.8;3.4;2.6
74432;PMS7003;62865;53.146;23.172;2023-07-08T07:47:40;3.2;2.8;2.2
74432;PMS7003;62865;53.146;23.172;2023-07-08T07:53:02;3.8;3.2;2.2
74432;PMS7003;62865;53.146;23.172;2023-07-08T07:57:26;4.4;3.6;2.6
74432;PMS7003;62865;53.146;23.172;2023-07-08T08:02:12;4.8;3.6;2.8
74432;PMS7003;62865;53.146;23.172;2023-07-08T08:07:40;3.6;3.2;2.6
74432;PMS7003;62865;53.146;23.172;2023-07-08T08:12:38;4;3;2.2
74432;PMS7003;62865;53.146;23.172;2023-07-08T08:17:34;3.2;3;2.4
74432;PMS7003;62865;53.146;23.172;2023-07-08T08:22:42;3.8;3;2
74432;PMS7003;62865;53.146;23.172;2023-07-08T08:27:42;3.8;3.4;2.4
74432;PMS7003;62865;53.146;23.172;2023-07-08T08:32:26;3.4;3.2;2.4
74432;PMS7003;62865;53.146;23.172;2023-07-08T08:37:12;3.4;2.8;2.2
74432;PMS7003;62865;53.146;23.172;2023-07-08T08:43:02;4.6;3.8;2.6
74432;PMS7003;62865;53.146;23.172;2023-07-08T08:48:03;3.6;3.4;2.4
74432;PMS7003;62865;53.146;23.172;2023-07-08T08:52:18;4;3.4;2.8
74432;PMS7003;62865;53.146;23.172;2023-07-08T08:57:21;5;4;2.8
74432;PMS7003;62865;53.146;23.172;2023-07-08T09:02:18;4;3.6;2.6
74432;PMS7003;62865;53.146;23.172;2023-07-08T09:07:26;5.4;4.4;3.2
74432;PMS7003;62865;53.146;23.172;2023-07-08T09:12:36;4.2;3.8;3
74432;PMS7003;62865;53.146;23.172;2023-07-08T09:17:23;4.2;3.8;2.8
74432;PMS7003;62865;53.146;23.172;2023-07-08T09:22:42;4.8;4.4;3
74432;PMS7003;62865;53.146;23.172;2023-07-08T09:27:46;3.8;3.6;2.8
74432;PMS7003;62865;53.146;23.172;2023-07-08T09:32:46;4.8;3.6;3
74432;PMS7003;62865;53.146;23.172;2023-07-08T09:38:03;4.4;3.8;2.8
74432;PMS7003;62865;53.146;23.172;2023-07-08T09:42:27;3.6;3;2.2
74432;PMS7003;62865;53.146;23.172;2023-07-08T09:48:01;4.4;3.6;3
74432;PMS7003;62865;53.146;23.172;2023-07-08T09:52:36;4.2;3.4;2.4
74432;PMS7003;62865;53.146;23.172;2023-07-08T09:58:00;4;3.8;2.8
74432;PMS7003;62865;53.146;23.172;2023-07-08T10:02:53;3;3;2.3
74432;PMS7003;62865;53.146;23.172;2023-07-08T10:07:38;3.4;3;2.2
74432;PMS7003;62865;53.146;23.172;2023-07-08T10:12:38;3.6;3.6;2.8
74432;PMS7003;62865;53.146;23.172;2023-07-08T10:17:13;4;3.8;2.8
74432;PMS7003;62865;53.146;23.172;2023-07-08T10:23:05;3.4;3.2;2.6
74432;PMS7003;62865;53.146;23.172;2023-07-08T10:27:39;3.2;3;2.4
74432;PMS7003;62865;53.146;23.172;2023-07-08T10:32:13;4.4;3.4;2.4
74432;PMS7003;62865;53.146;23.172;2023-07-08T10:38:06;3.6;3.2;2.4
74432;PMS7003;62865;53.146;23.172;2023-07-08T10:43:06;3.2;3;1.8
74432;PMS7003;62865;53.146;23.172;2023-07-08T10:47:23;3.8;3.8;2.4
74432;PMS7003;62865;53.146;23.172;2023-07-08T10:52:27;4.4;3.4;2.4
74432;PMS7003;62865;53.146;23.172;2023-07-08T10:57:44;3.2;3;1.6
74432;PMS7003;62865;53.146;23.172;2023-07-08T11:02:54;4;4;3
74432;PMS7003;62865;53.146;23.172;2023-07-08T11:07:12;3;3;2.4
74432;PMS7003;62865;53.146;23.172;2023-07-08T11:12:23;3.4;3;2
74432;PMS7003;62865;53.146;23.172;2023-07-08T11:18:04;3.4;2.8;2
74432;PMS7003;62865;53.146;23.172;2023-07-08T11:22:20;2.4;2.4;2.2
74432;PMS7003;62865;53.146;23.172;2023-07-08T11:27:38;2.8;2.6;1.8
74432;PMS7003;62865;53.146;23.172;2023-07-08T11:32:47;4;3.6;2.8
74432;PMS7003;62865;53.146;23.172;2023-07-08T11:37:54;4.6;4.6;3.2
74432;PMS7003;62865;53.146;23.172;2023-07-08T11:43:02;3.6;3.2;2.2
74432;PMS7003;62865;53.146;23.172;2023-07-08T11:47:12;4.8;4;3
74432;PMS7003;62865;53.146;23.172;2023-07-08T11:52:13;3.2;3;1.8
74432;PMS7003;62865;53.146;23.172;2023-07-08T11:57:23;3.5;3.5;2.5
74432;PMS7003;62865;53.146;23.172;2023-07-08T12:02:30;4;3.6;2.8
74432;PMS7003;62865;53.146;23.172;2023-07-08T12:08:02;3.3;3.3;2.5
74432;PMS7003;62865;53.146;23.172;2023-07-08T12:12:42;4.3;4.3;3
74432;PMS7003;62865;53.146;23.172;2023-07-08T12:18:04;3.5;3.3;3
74432;PMS7003;62865;53.146;23.172;2023-07-08T12:22:20;4.5;4.5;3.3
74432;PMS7003;62865;53.146;23.172;2023-07-08T12:27:12;3.8;3.5;2.8
74432;PMS7003;62865;53.146;23.172;2023-07-08T12:32:34;4.5;4.3;3.8
74432;PMS7003;62865;53.146;23.172;2023-07-08T12:37:36;3.3;3.3;2.3
74432;PMS7003;62865;53.146;23.172;2023-07-08T12:42:34;3.3;3.3;2.3
74432;PMS7003;62865;53.146;23.172;2023-07-08T12:47:42;2.8;2.8;2
74432;PMS7003;62865;53.146;23.172;2023-07-08T12:52:42;3.4;2.8;2.6
74432;PMS7003;62865;53.146;23.172;2023-07-08T12:57:12;4;3.8;2.8
74432;PMS7003;62865;53.146;23.172;2023-07-08T13:02:14;4.6;4.2;3.4
74432;PMS7003;62865;53.146;23.172;2023-07-08T13:08:00;4.6;4.6;3.6
74432;PMS7003;62865;53.146;23.172;2023-07-08T13:13:03;3.5;3.5;2.8
74432;PMS7003;62865;53.146;23.172;2023-07-08T13:22:26;4.7;4.3;3
74432;PMS7003;62865;53.146;23.172;2023-07-08T13:28:11;3.3;3.3;2.7
74432;PMS7003;62865;53.146;23.172;2023-07-08T13:32:12;4;3.8;3
74432;PMS7003;62865;53.146;23.172;2023-07-08T13:37:12;10;9.6;5.8
74432;PMS7003;62865;53.146;23.172;2023-07-08T13:42:47;13.8;12.5;9.3
74432;PMS7003;62865;53.146;23.172;2023-07-08T13:48:08;15;12.5;9.5
74432;PMS7003;62865;53.146;23.172;2023-07-08T13:52:54;6.4;6.2;4.6
74432;PMS7003;62865;53.146;23.172;2023-07-08T13:57:46;8.2;7.4;5.2
74432;PMS7003;62865;53.146;23.172;2023-07-08T14:03:02;5.8;5.8;4.3
74432;PMS7003;62865;53.146;23.172;2023-07-08T14:07:27;4.4;4.2;3.2
74432;PMS7003;62865;53.146;23.172;2023-07-08T14:13:02;5;4.8;3.4
74432;PMS7003;62865;53.146;23.172;2023-07-08T14:17:38;5;5;3.8
74432;PMS7003;62865;53.146;23.172;2023-07-08T14:23:02;4.6;4.2;3.2
74432;PMS7003;62865;53.146;23.172;2023-07-08T14:27:54;4.6;4.2;3.2
74432;PMS7003;62865;53.146;23.172;2023-07-08T14:32:46;4.6;4.4;3.4
74432;PMS7003;62865;53.146;23.172;2023-07-08T14:37:20;4.6;4.6;3.8
74432;PMS7003;62865;53.146;23.172;2023-07-08T14:42:20;4.6;4.2;3.2
74432;PMS7003;62865;53.146;23.172;2023-07-08T14:48:04;4.4;4;3.4
74432;PMS7003;62865;53.146;23.172;2023-07-08T14:52:38;5.6;4.6;4
74432;PMS7003;62865;53.146;23.172;2023-07-08T14:57:37;4.8;4.4;3.6
74432;PMS7003;62865;53.146;23.172;2023-07-08T15:03:02;4.2;4.2;3.2
74432;PMS7003;62865;53.146;23.172;2023-07-08T15:07:57;4.6;4.4;3.4
74432;PMS7003;62865;53.146;23.172;2023-07-08T15:12:30;5.2;4;3.2
74432;PMS7003;62865;53.146;23.172;2023-07-08T15:17:20;4;4;3.8
74432;PMS7003;62865;53.146;23.172;2023-07-08T15:22:54;4.8;4.4;3.2
74432;PMS7003;62865;53.146;23.172;2023-07-08T15:27:36;5.4;5;3.4
74432;PMS7003;62865;53.146;23.172;2023-07-08T15:32:34;4.2;4;3.2
74432;PMS7003;62865;53.146;23.172;2023-07-08T15:37:38;5.2;4.6;3.6
74432;PMS7003;62865;53.146;23.172;2023-07-08T15:43:02;5;4.4;3.2
74432;PMS7003;62865;53.146;23.172;2023-07-08T15:47:30;5;4.3;3
74432;PMS7003;62865;53.146;23.172;2023-07-08T15:52:36;4;3.4;2.8
74432;PMS7003;62865;53.146;23.172;2023-07-08T15:58:01;5.6;4.4;3.4
74432;PMS7003;62865;53.146;23.172;2023-07-08T16:03:00;4.4;4;3.2
74432;PMS7003;62865;53.146;23.172;2023-07-08T16:07:26;4.6;4.2;3.2
74432;PMS7003;62865;53.146;23.172;2023-07-08T16:12:26;4.8;4.8;3.4
74432;PMS7003;62865;53.146;23.172;2023-07-08T16:17:26;4.8;3.8;3
74432;PMS7003;62865;53.146;23.172;2023-07-08T16:22:30;5.6;5;4.2
74432;PMS7003;62865;53.146;23.172;2023-07-08T16:27:20;4.8;4;3.4
74432;PMS7003;62865;53.146;23.172;2023-07-08T16:33:02;5.4;4.8;3.2
74432;PMS7003;62865;53.146;23.172;2023-07-08T16:37:49;3.4;3.2;2.8
74432;PMS7003;62865;53.146;23.172;2023-07-08T16:43:02;4.2;3.4;3
74432;PMS7003;62865;53.146;23.172;2023-07-08T16:47:20;5.2;4.4;3.6
74432;PMS7003;62865;53.146;23.172;2023-07-08T16:52:18;5.2;4.2;3
74432;PMS7003;62865;53.146;23.172;2023-07-08T16:57:12;5.4;4.4;3.4
74432;PMS7003;62865;53.146;23.172;2023-07-08T17:02:12;4.2;4;2.8
74432;PMS7003;62865;53.146;23.172;2023-07-08T17:07:34;4.6;3.8;3
74432;PMS7003;62865;53.146;23.172;2023-07-08T17:12:44;3.6;3.4;3
74432;PMS7003;62865;53.146;23.172;2023-07-08T17:17:38;5.4;4.8;3.8
74432;PMS7003;62865;53.146;23.172;2023-07-08T17:22:12;5.6;4.8;3.6
74432;PMS7003;62865;53.146;23.172;2023-07-08T17:27:12;3.6;3.2;2.4
74432;PMS7003;62865;53.146;23.172;2023-07-08T17:32:47;5.6;4.4;3.6
74432;PMS7003;62865;53.146;23.172;2023-07-08T17:38:00;5.6;4.2;3.2
74432;PMS7003;62865;53.146;23.172;2023-07-08T17:43:02;4.4;4.2;3.4
74432;PMS7003;62865;53.146;23.172;2023-07-08T17:47:26;4.8;4.4;3.6
74432;PMS7003;62865;53.146;23.172;2023-07-08T17:53:02;5.8;4.4;3.2
74432;PMS7003;62865;53.146;23.172;2023-07-08T17:57:12;4.8;4.8;3.4
74432;PMS7003;62865;53.146;23.172;2023-07-08T18:02:20;5.4;4.8;3.2
74432;PMS7003;62865;53.146;23.172;2023-07-08T18:07:46;4.4;4;3.2
74432;PMS7003;62865;53.146;23.172;2023-07-08T18:12:43;5.4;4.8;3.4
74432;PMS7003;62865;53.146;23.172;2023-07-08T18:17:55;5.2;4.4;3
74432;PMS7003;62865;53.146;23.172;2023-07-08T18:22:14;4.8;4.8;3.4
74432;PMS7003;62865;53.146;23.172;2023-07-08T18:27:42;5.4;5.2;3.8
74432;PMS7003;62865;53.146;23.172;2023-07-08T18:32:12;5.8;5.4;3.6
74432;PMS7003;62865;53.146;23.172;2023-07-08T18:37:48;4.8;4.4;3.2
74432;PMS7003;62865;53.146;23.172;2023-07-08T18:43:01;5.4;5;4
74432;PMS7003;62865;53.146;23.172;2023-07-08T18:48:02;5.4;4.6;3.4
74432;PMS7003;62865;53.146;23.172;2023-07-08T18:52:36;4.6;4.2;3.6
74432;PMS7003;62865;53.146;23.172;2023-07-08T18:57:46;4.6;4.2;3.4
74432;PMS7003;62865;53.146;23.172;2023-07-08T19:02:29;5.6;5.6;4.2
74432;PMS7003;62865;53.146;23.172;2023-07-08T19:07:20;5.8;4.8;3.4
74432;PMS7003;62865;53.146;23.172;2023-07-08T19:13:02;5;5;3.8
74432;PMS7003;62865;53.146;23.172;2023-07-08T19:17:36;6;5.6;4
74432;PMS7003;62865;53.146;23.172;2023-07-08T19:22:34;4.8;4.4;3.2
74432;PMS7003;62865;53.146;23.172;2023-07-08T19:28:04;5.2;4.8;3.6
74432;PMS7003;62865;53.146;23.172;2023-07-08T19:33:04;6.8;5.8;4.6
74432;PMS7003;62865;53.146;23.172;2023-07-08T19:37:20;7.6;6;4.4
74432;PMS7003;62865;53.146;23.172;2023-07-08T19:42:13;6.2;5.4;3.8
74432;PMS7003;62865;53.146;23.172;2023-07-08T19:47:32;6.6;5.4;4
74432;PMS7003;62865;53.146;23.172;2023-07-08T19:52:54;7.2;6;4.8
74432;PMS7003;62865;53.146;23.172;2023-07-08T19:57:38;7.8;6.8;5
74432;PMS7003;62865;53.146;23.172;2023-07-08T20:02:26;6.6;6.4;4.8
74432;PMS7003;62865;53.146;23.172;2023-07-08T20:08:08;7.6;7.2;5.2
74432;PMS7003;62865;53.146;23.172;2023-07-08T20:12:38;11;8.4;6.4
74432;PMS7003;62865;53.146;23.172;2023-07-08T20:17:20;8.4;8;6.2
74432;PMS7003;62865;53.146;23.172;2023-07-08T20:23:02;11.8;10.8;8.6
74432;PMS7003;62865;53.146;23.172;2023-07-08T20:27:56;15.4;14.6;10.4
74432;PMS7003;62865;53.146;23.172;2023-07-08T20:32:46;16.3;14.7;10.3
74432;PMS7003;62865;53.146;23.172;2023-07-08T20:37:20;15.2;14;10.4
74432;PMS7003;62865;53.146;23.172;2023-07-08T20:43:02;16.4;14;10.4
74432;PMS7003;62865;53.146;23.172;2023-07-08T20:47:20;17.8;16.4;11.8
74432;PMS7003;62865;53.146;23.172;2023-07-08T20:52:20;17.2;16.4;11.8
74432;PMS7003;62865;53.146;23.172;2023-07-08T20:57:32;20.4;19.4;14.2
74432;PMS7003;62865;53.146;23.172;2023-07-08T21:02:44;22.2;20.8;15.8
74432;PMS7003;62865;53.146;23.172;2023-07-08T21:08:05;20.6;19.4;15
74432;PMS7003;62865;53.146;23.172;2023-07-08T21:12:26;21.4;20.4;15
74432;PMS7003;62865;53.146;23.172;2023-07-08T21:17:18;23.8;22.2;16.8
74432;PMS7003;62865;53.146;23.172;2023-07-08T21:22:12;22;21.4;15.6
74432;PMS7003;62865;53.146;23.172;2023-07-08T21:27:18;20.4;19.8;14.2
74432;PMS7003;62865;53.146;23.172;2023-07-08T21:32:36;16;15.2;11.6
74432;PMS7003;62865;53.146;23.172;2023-07-08T21:37:45;18;16.2;11.2
74432;PMS7003;62865;53.146;23.172;2023-07-08T21:43:03;14.8;14.4;9.6
74432;PMS7003;62865;53.146;23.172;2023-07-08T21:47:12;15;14.4;10.4
74432;PMS7003;62865;53.146;23.172;2023-07-08T21:52:12;16.8;15.4;11.4
74432;PMS7003;62865;53.146;23.172;2023-07-08T21:57:46;17.6;16.2;11.6
74432;PMS7003;62865;53.146;23.172;2023-07-08T22:03:07;16.4;14.4;10.8
74432;PMS7003;62865;53.146;23.172;2023-07-08T22:08:02;19.8;18.4;13
74432;PMS7003;62865;53.146;23.172;2023-07-08T22:12:26;20.2;18;14.2
74432;PMS7003;62865;53.146;23.172;2023-07-08T22:18:04;17.4;16;12.4
74432;PMS7003;62865;53.146;23.172;2023-07-08T22:22:20;17.6;16;11.6
74432;PMS7003;62865;53.146;23.172;2023-07-08T22:27:12;16.8;16.2;12.2
74432;PMS7003;62865;53.146;23.172;2023-07-08T22:32:47;18.4;17;12.8
74432;PMS7003;62865;53.146;23.172;2023-07-08T22:37:20;21;19.4;14
74432;PMS7003;62865;53.146;23.172;2023-07-08T22:42:57;22;20.4;15
74432;PMS7003;62865;53.146;23.172;2023-07-08T22:47:46;21.2;19.4;14.2
74432;PMS7003;62865;53.146;23.172;2023-07-08T22:53:02;22.4;21.2;14.8
74432;PMS7003;62865;53.146;23.172;2023-07-08T22:57:12;13.8;13.2;9.8
74432;PMS7003;62865;53.146;23.172;2023-07-08T23:03:02;12.3;11.5;8.5
74432;PMS7003;62865;53.146;23.172;2023-07-08T23:07:12;12.2;11;8
74432;PMS7003;62865;53.146;23.172;2023-07-08T23:13:02;12.2;11.4;8
74432;PMS7003;62865;53.146;23.172;2023-07-08T23:17:54;16.6;15.6;11.4
74432;PMS7003;62865;53.146;23.172;2023-07-08T23:22:46;15.6;14.4;10.8
74432;PMS7003;62865;53.146;23.172;2023-07-08T23:27:12;24.2;22.6;15.6
74432;PMS7003;62865;53.146;23.172;2023-07-08T23:32:12;15.8;14.6;11.2
74432;PMS7003;62865;53.146;23.172;2023-07-08T23:38:04;19.2;17.4;12.2
74432;PMS7003;62865;53.146;23.172;2023-07-08T23:42:30;19.4;18.8;13.2
74432;PMS7003;62865;53.146;23.172;2023-07-08T23:47:34;21.6;20.4;14.4
74432;PMS7003;62865;53.146;23.172;2023-07-08T23:53:02;22.6;21.2;15.8
74432;PMS7003;62865;53.146;23.172;2023-07-08T23:58:02;22.4;20.4;15.4
